Terminal Aerodrome Forecast
Issued by NWS Denver/Boulder, CO

Home | Current Version | Previous Version | Text Only | Print | Product List | Glossary On
Versions: 1 2 3 4 5 6 7 8 9 10 11 12 13 14 15 16 17 18 19 20 21 22 23 24 25 26 27 28 29 30 31 32 33 34 35 36 37 38 39 40 41 42 43 44 45 46 47 48 49 50
983
FTUS45 KBOU 290629 AAA
TAFDEN
TAF AMD
KDEN 290629Z 2906/3012 01012G22KT 5SM -RASN BR OVC006
      TEMPO 2906/2907 4SM -RASN BR OVC003
     FM290700 03015KT 6SM -RASN BR BKN006 OVC012
     FM291300 02012KT P6SM -SHRA SCT012 BKN025
     FM291800 36015KT P6SM VCSH SCT035 BKN050
     FM292000 02012KT P6SM SCT050 BKN080
     FM300100 05008KT P6SM SCT060 SCT100
     FM300300 11006KT P6SM FEW100
     FM300600 18010KT P6SM SKC=

USA.gov is the U.S. government's official web portal to all federal, state and local government web resources and services.